createdAt,value
2023-03-30T00:03:31.201Z,13.00
2023-03-30T00:08:34.945Z,13.00
2023-03-30T00:13:37.902Z,13.10
2023-03-30T00:18:41.202Z,13.10
2023-03-30T00:23:44.798Z,13.10
2023-03-30T00:28:46.941Z,13.10
2023-03-30T00:33:49.080Z,13.00
2023-03-30T00:38:52.641Z,13.10
2023-03-30T00:44:00.030Z,13.00
2023-03-30T00:49:05.346Z,13.10
2023-03-30T00:54:13.713Z,13.10
2023-03-30T00:59:15.897Z,13.10
2023-03-30T01:04:18.249Z,13.10
2023-03-30T01:09:21.821Z,13.10
2023-03-30T01:14:23.992Z,13.10
2023-03-30T01:19:52.253Z,13.10
2023-03-30T01:25:22.527Z,13.00
2023-03-30T01:30:40.271Z,13.00
2023-03-30T01:36:27.377Z,13.00
2023-03-30T01:41:36.818Z,13.00
2023-03-30T01:46:44.990Z,13.00
2023-03-30T01:51:53.749Z,13.00
2023-03-30T01:57:02.964Z,13.00
2023-03-30T02:02:07.364Z,13.00
2023-03-30T02:07:14.479Z,13.10
2023-03-30T02:12:19.728Z,13.10
2023-03-30T02:17:23.878Z,13.10
2023-03-30T02:22:27.365Z,13.20
2023-03-30T02:27:32.523Z,13.20
2023-03-30T02:32:44.404Z,13.20
2023-03-30T02:38:16.517Z,13.20
2023-03-30T02:43:29.835Z,13.30
2023-03-30T02:48:42.549Z,13.20
2023-03-30T02:53:54.246Z,13.30
2023-03-30T02:59:04.222Z,13.30
2023-03-30T03:04:08.692Z,13.30
2023-03-30T03:09:11.245Z,13.30
2023-03-30T03:14:14.813Z,13.30
2023-03-30T03:19:16.875Z,13.40
2023-03-30T03:24:19.014Z,13.50
2023-03-30T03:29:22.611Z,13.60
2023-03-30T03:34:24.756Z,13.60
2023-03-30T03:39:26.891Z,13.70
2023-03-30T03:44:30.632Z,13.70
2023-03-30T03:49:32.728Z,13.80
2023-03-30T03:54:34.820Z,13.80
2023-03-30T03:59:38.409Z,13.90
2023-03-30T04:04:40.548Z,13.90
2023-03-30T04:09:42.716Z,13.90
2023-03-30T04:14:46.217Z,13.90
2023-03-30T04:19:48.295Z,13.90
2023-03-30T04:24:50.611Z,13.90
2023-03-30T04:29:54.164Z,14.00
2023-03-30T04:34:56.228Z,14.00
2023-03-30T04:39:59.115Z,14.10
2023-03-30T04:45:03.246Z,14.10
2023-03-30T04:50:06.160Z,14.20
2023-03-30T04:55:09.086Z,14.30
2023-03-30T05:00:14.078Z,14.30
2023-03-30T05:05:16.328Z,14.40
2023-03-30T05:10:18.447Z,14.40
2023-03-30T05:15:22.134Z,14.40
2023-03-30T05:20:24.305Z,14.50
2023-03-30T05:25:26.444Z,14.50
2023-03-30T05:30:30.040Z,14.50
2023-03-30T05:35:32.257Z,14.60
2023-03-30T05:40:34.358Z,14.60
2023-03-30T05:45:38.538Z,14.60
2023-03-30T05:50:40.717Z,14.60
2023-03-30T05:55:44.352Z,14.70
2023-03-30T06:00:47.884Z,14.70
2023-03-30T06:05:52.553Z,14.80
2023-03-30T06:10:55.992Z,14.80
2023-03-30T06:16:02.925Z,14.80
2023-03-30T06:21:06.525Z,14.80
2023-03-30T06:26:09.195Z,14.90
2023-03-30T06:31:13.191Z,14.90
2023-03-30T06:36:16.881Z,15.00
2023-03-30T06:41:19.088Z,15.10
2023-03-30T06:46:22.837Z,15.10
2023-03-30T06:51:25.371Z,15.10
2023-03-30T06:56:27.526Z,15.10
2023-03-30T07:01:31.547Z,15.10
2023-03-30T07:06:33.710Z,15.10
2023-03-30T07:11:35.931Z,15.10
2023-03-30T07:16:39.548Z,15.20
2023-03-30T07:21:41.683Z,15.20
2023-03-30T07:26:43.882Z,15.30
2023-03-30T07:31:47.519Z,15.40
2023-03-30T07:36:49.824Z,15.50
2023-03-30T07:41:52.088Z,15.70
2023-03-30T07:46:55.868Z,15.90
2023-03-30T07:51:58.072Z,16.10
2023-03-30T07:57:00.483Z,16.20
2023-03-30T08:02:04.231Z,16.40
2023-03-30T08:07:06.458Z,16.70
2023-03-30T08:12:08.573Z,17.10
2023-03-30T08:17:12.163Z,17.80
2023-03-30T08:22:14.403Z,18.50
2023-03-30T08:27:16.619Z,19.00
2023-03-30T08:32:20.338Z,18.90
2023-03-30T08:37:22.455Z,18.50
2023-03-30T08:42:41.904Z,18.10
2023-03-30T08:47:49.720Z,17.60
2023-03-30T08:52:53.058Z,17.20
2023-03-30T08:58:02.890Z,16.80
2023-03-30T09:03:17.721Z,16.50
2023-03-30T09:08:22.572Z,16.30
2023-03-30T09:13:28.244Z,16.10
2023-03-30T09:18:33.561Z,15.90
2023-03-30T09:23:35.749Z,15.80
2023-03-30T09:28:46.648Z,15.70
2023-03-30T09:33:57.877Z,15.60
2023-03-30T09:39:00.364Z,15.50
2023-03-30T09:44:02.790Z,15.60
2023-03-30T09:49:16.863Z,15.70
2023-03-30T09:54:19.921Z,16.00
2023-03-30T09:59:30.434Z,16.30
2023-03-30T10:04:34.480Z,16.40
2023-03-30T10:09:44.572Z,16.50
2023-03-30T10:14:46.782Z,16.50
2023-03-30T10:24:56.497Z,16.40
2023-03-30T10:30:08.050Z,16.40
2023-03-30T10:35:11.859Z,16.50
2023-03-30T10:40:17.774Z,16.70
2023-03-30T10:45:26.359Z,17.00
2023-03-30T10:50:39.287Z,17.50
2023-03-30T10:55:49.017Z,18.00
2023-03-30T11:01:04.260Z,18.30
2023-03-30T11:06:15.836Z,18.30
2023-03-30T11:11:22.614Z,18.10
2023-03-30T11:16:40.011Z,17.70
2023-03-30T11:21:49.369Z,17.50
2023-03-30T11:26:57.327Z,17.30
2023-03-30T11:32:14.873Z,17.20
2023-03-30T11:37:26.013Z,17.40
2023-03-30T11:42:31.483Z,17.50
2023-03-30T11:47:55.418Z,17.60
2023-03-30T11:53:11.485Z,17.50
2023-03-30T11:58:27.091Z,17.50
2023-03-30T12:03:40.316Z,17.40
2023-03-30T12:09:00.917Z,17.40
2023-03-30T12:14:05.200Z,17.40
2023-03-30T12:19:13.579Z,17.40
2023-03-30T12:24:23.952Z,17.30
2023-03-30T12:30:01.872Z,17.30
2023-03-30T12:35:38.974Z,17.30
2023-03-30T12:40:46.137Z,17.20
2023-03-30T12:45:50.721Z,17.20
2023-03-30T12:51:02.254Z,17.20
2023-03-30T12:56:11.037Z,17.20
2023-03-30T13:01:32.468Z,17.20
2023-03-30T13:06:38.988Z,17.20
2023-03-30T13:12:05.862Z,17.40
2023-03-30T13:17:15.808Z,17.50
2023-03-30T13:22:29.041Z,17.70
2023-03-30T13:27:37.526Z,17.80
2023-03-30T13:32:55.655Z,17.90
2023-03-30T13:38:23.110Z,18.00
2023-03-30T13:43:39.881Z,17.90
2023-03-30T13:48:57.698Z,17.80
2023-03-30T13:54:03.427Z,17.70
2023-03-30T13:59:13.546Z,17.60
2023-03-30T14:04:16.057Z,17.50
2023-03-30T14:09:22.735Z,17.50
2023-03-30T14:14:33.549Z,17.60
2023-03-30T14:19:38.499Z,17.90
2023-03-30T14:24:56.923Z,18.00
2023-03-30T14:30:00.778Z,18.20
2023-03-30T14:35:06.290Z,18.30
2023-03-30T14:40:15.146Z,18.50
2023-03-30T14:45:19.528Z,18.60
2023-03-30T14:50:23.036Z,18.60
2023-03-30T14:55:26.539Z,18.60
2023-03-30T15:00:30.407Z,18.50
2023-03-30T15:05:36.402Z,18.40
2023-03-30T15:10:45.805Z,18.30
2023-03-30T15:15:49.645Z,18.20
2023-03-30T15:20:52.284Z,18.10
2023-03-30T15:25:59.314Z,18.00
2023-03-30T15:31:03.107Z,18.00
2023-03-30T15:36:10.513Z,17.90
2023-03-30T15:41:13.051Z,18.00
2023-03-30T15:46:16.794Z,18.00
2023-03-30T15:51:25.326Z,18.00
2023-03-30T15:56:32.203Z,17.90
2023-03-30T16:01:51.672Z,17.90
2023-03-30T16:06:54.061Z,17.80
2023-03-30T16:11:58.569Z,17.70
2023-03-30T16:17:02.044Z,17.60
2023-03-30T16:22:04.240Z,17.50
2023-03-30T16:27:06.811Z,17.40
2023-03-30T16:32:10.713Z,17.30
2023-03-30T16:37:12.996Z,17.30
2023-03-30T16:42:15.042Z,17.20
2023-03-30T16:47:18.652Z,17.10
2023-03-30T16:52:21.028Z,17.10
2023-03-30T16:57:23.155Z,17.00
2023-03-30T17:02:26.695Z,16.90
2023-03-30T17:07:28.826Z,16.80
2023-03-30T17:12:30.978Z,16.70
2023-03-30T17:17:34.506Z,16.70
2023-03-30T17:22:36.774Z,16.60
2023-03-30T17:27:43.579Z,16.50
2023-03-30T17:32:50.070Z,16.40
2023-03-30T17:37:58.304Z,16.30
2023-03-30T17:43:01.264Z,16.20
2023-03-30T17:48:08.616Z,16.20
2023-03-30T17:53:13.701Z,16.00
2023-03-30T17:58:19.411Z,16.00
2023-03-30T18:03:28.926Z,15.90
2023-03-30T18:08:33.845Z,15.80
2023-03-30T18:13:39.047Z,15.70
2023-03-30T18:18:46.509Z,15.60
2023-03-30T18:23:48.802Z,15.50
2023-03-30T18:28:51.046Z,15.40
2023-03-30T18:33:54.517Z,15.30
2023-03-30T18:38:56.652Z,15.20
2023-03-30T18:43:58.769Z,15.10
2023-03-30T18:49:02.399Z,15.00
2023-03-30T18:54:06.628Z,14.90
2023-03-30T18:59:10.141Z,14.80
2023-03-30T19:04:15.393Z,14.80
2023-03-30T19:09:17.548Z,14.70
2023-03-30T19:14:19.642Z,14.70
2023-03-30T19:19:23.238Z,14.70
2023-03-30T19:24:25.368Z,14.60
2023-03-30T19:29:27.521Z,14.50
2023-03-30T19:34:31.151Z,14.50
2023-03-30T19:39:33.264Z,14.40
2023-03-30T19:44:35.430Z,14.40
2023-03-30T19:49:38.938Z,14.40
2023-03-30T19:54:41.580Z,14.40
2023-03-30T19:59:43.766Z,14.30
2023-03-30T20:04:47.652Z,14.30
2023-03-30T20:09:49.921Z,14.30
2023-03-30T20:14:52.256Z,14.30
2023-03-30T20:19:55.918Z,14.30
2023-03-30T20:24:58.166Z,14.30
2023-03-30T20:30:00.452Z,14.30
2023-03-30T20:35:04.389Z,14.30
2023-03-30T20:40:08.238Z,14.30
2023-03-30T20:45:11.604Z,14.30
2023-03-30T20:50:15.245Z,14.30
2023-03-30T20:55:17.630Z,14.30
2023-03-30T21:00:20.819Z,14.30
2023-03-30T21:05:24.508Z,14.30
2023-03-30T21:10:26.664Z,14.30
2023-03-30T21:15:28.777Z,14.30
2023-03-30T21:20:32.320Z,14.30
2023-03-30T21:25:34.462Z,14.30
2023-03-30T21:30:36.740Z,14.20
2023-03-30T21:35:40.434Z,14.20
2023-03-30T21:40:42.836Z,14.20
2023-03-30T21:45:50.841Z,14.20
2023-03-30T21:51:00.443Z,14.20
2023-03-30T21:56:04.039Z,14.10
2023-03-30T22:01:12.236Z,14.10
2023-03-30T22:06:17.737Z,14.10
2023-03-30T22:11:21.861Z,14.00
2023-03-30T22:16:25.472Z,14.00
2023-03-30T22:21:29.955Z,13.90
2023-03-30T22:26:32.600Z,13.80
2023-03-30T22:31:34.768Z,13.80
2023-03-30T22:36:39.231Z,13.80
2023-03-30T22:41:41.393Z,13.80
2023-03-30T22:46:43.588Z,13.80
2023-03-30T22:51:47.226Z,13.70
2023-03-30T22:56:49.409Z,13.70
2023-03-30T23:01:52.254Z,13.70
2023-03-30T23:06:56.659Z,13.70
2023-03-30T23:11:59.467Z,13.60
2023-03-30T23:17:02.177Z,13.60
2023-03-30T23:22:05.920Z,13.60
2023-03-30T23:27:07.989Z,13.60
2023-03-30T23:32:10.356Z,13.60
2023-03-30T23:37:13.932Z,13.50
2023-03-30T23:42:16.172Z,13.50
2023-03-30T23:47:18.397Z,13.40
2023-03-30T23:52:22.111Z,13.40
2023-03-30T23:57:24.321Z,13.30
